Newport (Isle of Wight), United Kingdom
Current Conditions -  °F | °C
As of 7:50 PM on Wednesday 17 Dec 2014 (Local Time) from EGHI Reporting Station
Broken Clouds Broken Clouds  
Wind Chill: 52°   Ceiling: 700
Heat Index: 52°   Visibility: 5mi
Dew Point: 50°   Wind: 8mph
Humidity: 94%   Direction: 250°WSW
Pressure: 29.83"   Gusts: NA
Location:  50.7°N, 1.29°W
Report Text: EGHI 171950Z 25007KT 8000 BKN007 11/10 Q1010
Loading
Personal Weather Stations






























Interactive Weather Map New forecast layout! Learn more

10-Day Weather Forecast

Advertisements
Track Severe Weather on mobile